Time;durP1;ratioP1;P1;durP2;ratioP2;P2;SDS_P1;SDS_P2;PMS_P1;PMS_P2;Temp;Humidity;BMP_temperature;BMP_pressure;BME280_temperature;BME280_humidity;BME280_pressure;Samples;Min_cycle;Max_cycle;Signal;HPM_P1;HPM_P2
2022/09/16 00:00:19;;;;;;;5.07;2.07;;;;;;;;;;4883469;29;20180;-44
2022/09/16 00:02:45;;;;;;;4.37;2.10;;;;;;;;;;4884060;29;20574;-44
2022/09/16 00:05:11;;;;;;;6.40;2.13;;;;;;;;;;4883640;29;20188;-44
2022/09/16 00:07:37;;;;;;;7.83;2.30;;;;;;;;;;4887081;29;20176;-42
2022/09/16 00:10:04;;;;;;;2.87;1.70;;;;;;;;;;4887694;29;20863;-44
2022/09/16 00:12:30;;;;;;;3.67;2.00;;;;;;;;;;4880607;29;20212;-44
2022/09/16 00:14:56;;;;;;;5.27;2.03;;;;;;;;;;4887473;29;20231;-44
2022/09/16 00:17:22;;;;;;;6.47;1.93;;;;;;;;;;4886352;29;20659;-44
2022/09/16 00:19:49;;;;;;;2.73;1.90;;;;;;;;;;4883810;28;20211;-44
2022/09/16 00:22:16;;;;;;;5.00;2.10;;;;;;;;;;4884127;28;20176;-44
2022/09/16 00:24:42;;;;;;;3.97;2.03;;;;;;;;;;4887624;29;20195;-44
2022/09/16 00:27:08;;;;;;;4.87;1.60;;;;;;;;;;4887640;29;20368;-44
2022/09/16 00:29:34;;;;;;;5.23;1.77;;;;;;;;;;4889305;29;20438;-44
2022/09/16 00:32:01;;;;;;;3.10;1.80;;;;;;;;;;4886489;28;20192;-44
2022/09/16 00:34:27;;;;;;;3.77;1.97;;;;;;;;;;4887871;29;20467;-44
2022/09/16 00:36:53;;;;;;;5.03;1.80;;;;;;;;;;4887462;29;20185;-44
2022/09/16 00:39:19;;;;;;;3.90;1.90;;;;;;;;;;4889569;29;20917;-44
2022/09/16 00:41:45;;;;;;;3.43;1.80;;;;;;;;;;4889977;29;20225;-44
2022/09/16 00:44:30;;;;;;;3.73;1.90;;;;;;;;;;4886282;29;20180;-44
2022/09/16 00:46:56;;;;;;;4.20;2.00;;;;;;;;;;4885244;29;20661;-44
2022/09/16 00:49:26;;;;;;;3.57;2.00;;;;;;;;;;4880943;29;20522;-44
2022/09/16 00:51:54;;;;;;;3.10;1.67;;;;;;;;;;4887288;28;20315;-44
2022/09/16 00:54:20;;;;;;;2.57;1.60;;;;;;;;;;4887369;29;20219;-44
2022/09/16 00:56:47;;;;;;;4.37;2.00;;;;;;;;;;4886300;29;20525;-44
2022/09/16 00:59:16;;;;;;;2.67;1.87;;;;;;;;;;4889068;29;20259;-44
2022/09/16 01:01:43;;;;;;;3.37;1.70;;;;;;;;;;4885113;29;20394;-44
2022/09/16 01:04:29;;;;;;;3.23;1.97;;;;;;;;;;4886341;29;20674;-44
2022/09/16 01:06:56;;;;;;;3.57;1.80;;;;;;;;;;4886870;29;20307;-44
2022/09/16 01:09:24;;;;;;;4.63;1.93;;;;;;;;;;4888732;29;20195;-44
2022/09/16 01:11:50;;;;;;;4.67;1.80;;;;;;;;;;4887103;28;20919;-45
2022/09/16 01:17:08;;;;;;;4.90;1.87;;;;;;;;;;4888434;29;20906;-43
2022/09/16 01:19:34;;;;;;;4.43;2.00;;;;;;;;;;4885960;29;20583;-44
2022/09/16 01:22:00;;;;;;;4.00;1.97;;;;;;;;;;4885303;29;20184;-44
2022/09/16 01:24:34;;;;;;;5.07;2.37;;;;;;;;;;4884966;29;20207;-44
2022/09/16 01:27:12;;;;;;;4.23;2.00;;;;;;;;;;4885051;29;21016;-44
2022/09/16 01:29:48;;;;;;;5.57;2.30;;;;;;;;;;4881653;29;20499;-44
2022/09/16 01:32:17;;;;;;;3.23;1.90;;;;;;;;;;4880593;29;21197;-44
2022/09/16 01:34:54;;;;;;;4.23;2.00;;;;;;;;;;4883684;29;20295;-44
2022/09/16 01:37:23;;;;;;;5.90;2.40;;;;;;;;;;4887908;29;20615;-44
2022/09/16 01:39:49;;;;;;;3.67;1.80;;;;;;;;;;4881473;29;20341;-44
2022/09/16 01:42:19;;;;;;;4.63;2.23;;;;;;;;;;4883821;29;20972;-44
2022/09/16 01:44:59;;;;;;;6.03;2.33;;;;;;;;;;4886694;29;20350;-44
2022/09/16 01:47:26;;;;;;;6.63;2.20;;;;;;;;;;4887216;29;20303;-44
2022/09/16 01:49:52;;;;;;;3.53;2.17;;;;;;;;;;4882270;29;20291;-44
2022/09/16 01:52:18;;;;;;;4.33;2.17;;;;;;;;;;4879932;29;20571;-44
2022/09/16 01:55:01;;;;;;;4.37;1.90;;;;;;;;;;4871029;29;20242;-44
2022/09/16 01:57:33;;;;;;;6.13;2.40;;;;;;;;;;4879785;28;20191;-44
2022/09/16 02:00:07;;;;;;;3.93;1.80;;;;;;;;;;4880043;29;20951;-44
2022/09/16 02:02:48;;;;;;;2.83;1.63;;;;;;;;;;4877355;29;20199;-44
2022/09/16 02:05:17;;;;;;;5.50;2.00;;;;;;;;;;4881647;29;20184;-44
2022/09/16 02:07:47;;;;;;;2.43;1.50;;;;;;;;;;4881737;29;20192;-44
2022/09/16 02:10:33;;;;;;;5.00;1.57;;;;;;;;;;4881245;29;20475;-44
2022/09/16 02:13:02;;;;;;;3.57;1.80;;;;;;;;;;4878817;29;20516;-43
2022/09/16 02:15:30;;;;;;;4.83;1.90;;;;;;;;;;4879115;29;20315;-44
2022/09/16 02:17:59;;;;;;;4.70;2.00;;;;;;;;;;4880217;29;20214;-44
2022/09/16 02:20:26;;;;;;;4.17;1.90;;;;;;;;;;4878972;29;20702;-44
2022/09/16 02:22:59;;;;;;;4.93;2.03;;;;;;;;;;4880981;29;20562;-44
2022/09/16 02:25:27;;;;;;;2.93;1.70;;;;;;;;;;4881694;29;20737;-44
2022/09/16 02:27:53;;;;;;;5.87;1.80;;;;;;;;;;4883769;29;20602;-44
2022/09/16 02:30:20;;;;;;;4.53;1.70;;;;;;;;;;4887765;29;20383;-44
2022/09/16 02:32:48;;;;;;;5.87;1.57;;;;;;;;;;4884844;29;20191;-44
2022/09/16 02:35:18;;;;;;;6.43;2.13;;;;;;;;;;4882792;29;20208;-44
2022/09/16 02:37:52;;;;;;;3.47;1.70;;;;;;;;;;4883852;29;20188;-44
2022/09/16 02:40:21;;;;;;;3.80;1.63;;;;;;;;;;4882105;29;20807;-44
2022/09/16 02:42:48;;;;;;;2.83;1.70;;;;;;;;;;4885165;29;20187;-44
2022/09/16 02:45:14;;;;;;;3.87;1.90;;;;;;;;;;4885999;29;20192;-44
2022/09/16 02:47:43;;;;;;;5.83;1.90;;;;;;;;;;4887962;29;20206;-44
2022/09/16 02:50:11;;;;;;;3.27;1.83;;;;;;;;;;4889147;29;20410;-44
2022/09/16 02:52:46;;;;;;;3.40;1.80;;;;;;;;;;4888863;29;20195;-44
2022/09/16 02:55:15;;;;;;;3.33;1.83;;;;;;;;;;4883498;29;20215;-44
2022/09/16 02:57:41;;;;;;;6.30;2.23;;;;;;;;;;4885715;29;20267;-44
2022/09/16 03:00:08;;;;;;;5.43;2.20;;;;;;;;;;4888318;29;20897;-44
2022/09/16 03:02:35;;;;;;;5.07;2.00;;;;;;;;;;4887741;29;20184;-44
2022/09/16 03:05:02;;;;;;;5.97;2.20;;;;;;;;;;4886394;29;20181;-44
2022/09/16 03:07:28;;;;;;;4.30;2.47;;;;;;;;;;4884144;28;20280;-44
2022/09/16 03:09:54;;;;;;;6.13;2.53;;;;;;;;;;4889360;29;20599;-44
2022/09/16 03:12:41;;;;;;;3.83;2.17;;;;;;;;;;4883430;29;20195;-43
2022/09/16 03:15:22;;;;;;;5.27;2.43;;;;;;;;;;4887634;29;20749;-44
2022/09/16 03:18:02;;;;;;;4.87;2.37;;;;;;;;;;4887190;29;20522;-42
2022/09/16 03:20:31;;;;;;;7.13;2.67;;;;;;;;;;4887981;29;20184;-44
2022/09/16 03:23:00;;;;;;;5.53;2.43;;;;;;;;;;4887173;29;20204;-43
2022/09/16 03:25:32;;;;;;;5.63;2.53;;;;;;;;;;4884417;29;20210;-44
2022/09/16 03:28:05;;;;;;;4.57;2.30;;;;;;;;;;4883758;29;20230;-44
2022/09/16 03:30:33;;;;;;;7.63;2.57;;;;;;;;;;4887796;29;20450;-44
2022/09/16 03:33:03;;;;;;;5.63;2.50;;;;;;;;;;4884356;29;20284;-43
2022/09/16 03:35:32;;;;;;;6.23;2.73;;;;;;;;;;4888129;29;20957;-44
2022/09/16 03:37:59;;;;;;;7.40;2.70;;;;;;;;;;4881660;29;20724;-44
2022/09/16 03:40:25;;;;;;;6.33;2.67;;;;;;;;;;4883665;29;20261;-44
2022/09/16 03:42:52;;;;;;;7.47;2.30;;;;;;;;;;4890615;29;20824;-44
2022/09/16 03:45:20;;;;;;;5.90;2.50;;;;;;;;;;4885749;29;20224;-44
2022/09/16 03:47:46;;;;;;;4.70;2.50;;;;;;;;;;4885701;28;21085;-44
2022/09/16 03:50:13;;;;;;;4.13;2.30;;;;;;;;;;4888129;29;20188;-44
2022/09/16 03:52:39;;;;;;;6.93;2.80;;;;;;;;;;4884673;29;20181;-44
2022/09/16 03:55:06;;;;;;;5.80;2.50;;;;;;;;;;4884451;29;20212;-44
2022/09/16 03:57:32;;;;;;;10.73;3.30;;;;;;;;;;4883435;29;20605;-44
2022/09/16 03:59:58;;;;;;;5.00;3.07;;;;;;;;;;4888260;29;20524;-44
2022/09/16 04:02:24;;;;;;;7.40;3.33;;;;;;;;;;4885447;29;20176;-44
2022/09/16 04:04:51;;;;;;;10.73;3.67;;;;;;;;;;4887467;29;20181;-43
2022/09/16 04:07:17;;;;;;;10.20;3.67;;;;;;;;;;4884163;29;20304;-44
2022/09/16 04:09:43;;;;;;;8.27;2.97;;;;;;;;;;4883445;29;20263;-44
2022/09/16 04:12:09;;;;;;;9.33;3.37;;;;;;;;;;4886389;29;20188;-44
2022/09/16 04:14:36;;;;;;;6.90;3.17;;;;;;;;;;4886260;29;20776;-44
2022/09/16 04:17:02;;;;;;;14.20;4.73;;;;;;;;;;4886186;29;20180;-44
2022/09/16 04:19:28;;;;;;;6.53;3.57;;;;;;;;;;4882305;29;20257;-44
2022/09/16 04:21:54;;;;;;;10.60;4.40;;;;;;;;;;4886197;29;20799;-44
2022/09/16 04:24:20;;;;;;;10.07;3.60;;;;;;;;;;4882128;29;20254;-44
2022/09/16 04:26:46;;;;;;;6.27;3.40;;;;;;;;;;4884929;29;20195;-44
2022/09/16 04:29:12;;;;;;;9.67;3.87;;;;;;;;;;4886058;28;20874;-44
2022/09/16 04:31:38;;;;;;;8.37;3.90;;;;;;;;;;4883113;29;20195;-43
2022/09/16 04:34:05;;;;;;;5.67;3.30;;;;;;;;;;4887649;29;20983;-44
2022/09/16 04:36:32;;;;;;;4.00;3.00;;;;;;;;;;4885731;29;20652;-44
2022/09/16 04:38:58;;;;;;;7.20;3.70;;;;;;;;;;4879833;29;20472;-44
2022/09/16 04:41:25;;;;;;;10.00;3.80;;;;;;;;;;4883281;29;20195;-44
2022/09/16 04:43:53;;;;;;;6.87;3.40;;;;;;;;;;4882122;29;20317;-44
2022/09/16 04:46:19;;;;;;;10.60;4.07;;;;;;;;;;4881255;29;20854;-44
2022/09/16 04:48:49;;;;;;;8.53;4.80;;;;;;;;;;4880947;29;20670;-44
2022/09/16 04:51:15;;;;;;;8.40;4.27;;;;;;;;;;4881755;29;20267;-44
2022/09/16 04:53:44;;;;;;;12.23;5.27;;;;;;;;;;4882164;29;20572;-42
2022/09/16 04:56:18;;;;;;;11.17;5.90;;;;;;;;;;4886469;29;20484;-44
2022/09/16 04:58:45;;;;;;;10.10;5.43;;;;;;;;;;4886360;29;20172;-44
2022/09/16 05:01:13;;;;;;;9.80;5.40;;;;;;;;;;4883684;29;20182;-44
2022/09/16 05:03:40;;;;;;;12.20;6.50;;;;;;;;;;4882206;28;20513;-43
2022/09/16 05:06:07;;;;;;;13.30;6.63;;;;;;;;;;4884416;29;20661;-43
2022/09/16 05:08:34;;;;;;;13.17;5.83;;;;;;;;;;4886375;29;20200;-43
2022/09/16 05:11:20;;;;;;;8.73;6.00;;;;;;;;;;4885049;29;20188;-43
2022/09/16 05:13:46;;;;;;;11.43;6.17;;;;;;;;;;4885621;29;20176;-43
2022/09/16 05:16:13;;;;;;;10.13;4.83;;;;;;;;;;4883612;29;20731;-43
2022/09/16 05:18:41;;;;;;;9.70;5.97;;;;;;;;;;4881628;29;20701;-43
2022/09/16 05:21:09;;;;;;;12.03;6.87;;;;;;;;;;4886725;29;20741;-44
2022/09/16 05:23:35;;;;;;;16.73;7.57;;;;;;;;;;4879586;29;20249;-43
2022/09/16 05:26:04;;;;;;;18.27;7.93;;;;;;;;;;4880438;29;20200;-44
2022/09/16 05:28:30;;;;;;;13.03;7.50;;;;;;;;;;4885246;29;20487;-45
2022/09/16 05:31:06;;;;;;;11.37;6.17;;;;;;;;;;4885565;29;20714;-45
2022/09/16 05:33:32;;;;;;;16.60;7.43;;;;;;;;;;4880852;28;20596;-44
2022/09/16 05:36:03;;;;;;;17.63;7.20;;;;;;;;;;4885657;29;20322;-44
2022/09/16 05:38:29;;;;;;;10.67;5.87;;;;;;;;;;4886243;29;20520;-45
2022/09/16 05:40:58;;;;;;;10.53;6.63;;;;;;;;;;4884055;29;20191;-44
2022/09/16 05:43:24;;;;;;;10.60;6.27;;;;;;;;;;4881830;29;20199;-44
2022/09/16 05:45:53;;;;;;;13.33;5.73;;;;;;;;;;4882618;29;20302;-44
2022/09/16 05:48:19;;;;;;;12.17;5.97;;;;;;;;;;4884033;29;20184;-44
2022/09/16 05:50:55;;;;;;;13.70;6.47;;;;;;;;;;4887889;29;20192;-45
2022/09/16 05:53:22;;;;;;;9.17;5.80;;;;;;;;;;4884092;29;20629;-44
2022/09/16 05:55:55;;;;;;;12.83;6.13;;;;;;;;;;4885208;29;20289;-45
2022/09/16 05:58:21;;;;;;;19.53;7.87;;;;;;;;;;4894223;29;20184;-44
2022/09/16 06:00:47;;;;;;;14.37;7.03;;;;;;;;;;4896933;29;20605;-45
2022/09/16 06:03:13;;;;;;;12.03;7.00;;;;;;;;;;4895370;29;20192;-44
2022/09/16 06:05:39;;;;;;;14.17;6.60;;;;;;;;;;4892629;29;20495;-44
2022/09/16 06:08:05;;;;;;;16.70;7.47;;;;;;;;;;4891900;29;20505;-44
2022/09/16 06:10:31;;;;;;;12.27;7.03;;;;;;;;;;4893494;29;20649;-44
2022/09/16 06:12:58;;;;;;;13.10;7.63;;;;;;;;;;4904204;28;20188;-44
2022/09/16 06:15:24;;;;;;;12.77;6.90;;;;;;;;;;4894015;29;20399;-45
2022/09/16 06:17:50;;;;;;;14.53;7.17;;;;;;;;;;4893524;29;20188;-44
2022/09/16 06:20:16;;;;;;;10.37;6.50;;;;;;;;;;4891425;29;20891;-44
2022/09/16 06:22:42;;;;;;;14.87;6.00;;;;;;;;;;4891889;29;20179;-45
2022/09/16 06:25:08;;;;;;;11.20;5.93;;;;;;;;;;4893434;29;20199;-44
2022/09/16 06:27:35;;;;;;;8.27;4.90;;;;;;;;;;4896024;29;20521;-45
2022/09/16 06:30:01;;;;;;;12.50;4.83;;;;;;;;;;4892251;29;20187;-44
2022/09/16 06:32:30;;;;;;;13.23;5.23;;;;;;;;;;4892090;29;20192;-44
2022/09/16 06:34:56;;;;;;;11.23;4.97;;;;;;;;;;4891615;29;20439;-45
2022/09/16 06:37:22;;;;;;;8.97;4.30;;;;;;;;;;4893001;29;20192;-44
2022/09/16 06:39:48;;;;;;;8.37;4.10;;;;;;;;;;4890790;28;20184;-45
2022/09/16 06:42:14;;;;;;;10.03;4.47;;;;;;;;;;4889471;29;20214;-45
2022/09/16 06:44:40;;;;;;;13.87;4.10;;;;;;;;;;4894231;29;20715;-45
2022/09/16 06:47:06;;;;;;;9.13;4.03;;;;;;;;;;4885940;29;20184;-45
2022/09/16 06:49:33;;;;;;;7.77;4.00;;;;;;;;;;4889582;29;20861;-45
2022/09/16 06:51:59;;;;;;;10.77;4.30;;;;;;;;;;4890259;29;21910;-45
2022/09/16 06:54:25;;;;;;;6.90;3.97;;;;;;;;;;4893107;29;20746;-45
2022/09/16 06:56:51;;;;;;;9.00;4.17;;;;;;;;;;4888857;29;20299;-45
2022/09/16 06:59:17;;;;;;;13.30;3.90;;;;;;;;;;4894118;29;20331;-45
2022/09/16 07:01:43;;;;;;;7.07;3.57;;;;;;;;;;4882284;29;20181;-45
2022/09/16 07:04:12;;;;;;;7.57;3.40;;;;;;;;;;4892535;29;20183;-45
2022/09/16 07:06:38;;;;;;;7.50;3.50;;;;;;;;;;4893058;29;20190;-45
2022/09/16 07:09:04;;;;;;;7.63;3.67;;;;;;;;;;4890542;29;20184;-45
2022/09/16 07:11:31;;;;;;;6.50;3.13;;;;;;;;;;4888956;29;20906;-45
2022/09/16 07:14:01;;;;;;;6.63;2.93;;;;;;;;;;4887528;28;20184;-44
2022/09/16 07:16:27;;;;;;;8.00;3.33;;;;;;;;;;4887359;29;20184;-45
2022/09/16 07:18:54;;;;;;;8.87;2.97;;;;;;;;;;4890331;29;20757;-45
2022/09/16 07:21:23;;;;;;;6.10;2.57;;;;;;;;;;4889286;29;20215;-45
2022/09/16 07:23:50;;;;;;;8.57;3.23;;;;;;;;;;4894751;29;20275;-45
2022/09/16 07:26:18;;;;;;;7.10;2.60;;;;;;;;;;4898014;29;20254;-45
2022/09/16 07:28:47;;;;;;;7.47;2.67;;;;;;;;;;4897051;29;20214;-45
2022/09/16 07:31:17;;;;;;;8.83;2.73;;;;;;;;;;4894465;29;20196;-45
2022/09/16 07:33:46;;;;;;;15.80;3.90;;;;;;;;;;4895791;29;20419;-45
2022/09/16 07:36:13;;;;;;;7.00;3.00;;;;;;;;;;4897798;29;20692;-45
2022/09/16 07:38:39;;;;;;;7.77;2.90;;;;;;;;;;4896763;29;20473;-45
2022/09/16 07:41:10;;;;;;;8.37;3.10;;;;;;;;;;4893420;29;20851;-44
2022/09/16 07:43:37;;;;;;;9.47;3.13;;;;;;;;;;4896304;29;21192;-45
2022/09/16 07:46:03;;;;;;;12.90;3.50;;;;;;;;;;4899533;29;20648;-45
2022/09/16 07:48:30;;;;;;;10.27;3.50;;;;;;;;;;4898615;29;20199;-45
2022/09/16 07:50:57;;;;;;;15.77;3.87;;;;;;;;;;4896842;29;20184;-45
2022/09/16 07:53:24;;;;;;;20.33;4.73;;;;;;;;;;4895337;29;20199;-45
2022/09/16 07:55:50;;;;;;;9.93;3.87;;;;;;;;;;4895169;29;20323;-45
2022/09/16 07:58:16;;;;;;;21.67;4.43;;;;;;;;;;4898887;29;20191;-45
2022/09/16 08:00:43;;;;;;;14.60;5.80;;;;;;;;;;4899786;29;20618;-45
2022/09/16 08:03:09;;;;;;;13.77;4.77;;;;;;;;;;4898260;29;20368;-45
2022/09/16 08:05:35;;;;;;;12.57;5.30;;;;;;;;;;4898041;29;20180;-45
2022/09/16 08:08:01;;;;;;;14.40;5.27;;;;;;;;;;4895799;29;20840;-45
2022/09/16 08:10:27;;;;;;;15.37;5.47;;;;;;;;;;4895596;29;20714;-45
2022/09/16 08:12:54;;;;;;;15.90;4.93;;;;;;;;;;4901182;29;20242;-45
2022/09/16 08:15:20;;;;;;;11.80;4.90;;;;;;;;;;4895646;28;20634;-45
2022/09/16 08:17:46;;;;;;;12.30;4.37;;;;;;;;;;4896764;29;20180;-45
2022/09/16 08:20:13;;;;;;;16.30;4.90;;;;;;;;;;4894362;29;20712;-45
2022/09/16 08:22:39;;;;;;;17.70;6.03;;;;;;;;;;4899438;29;20533;-46
2022/09/16 08:25:05;;;;;;;14.83;4.87;;;;;;;;;;4900267;29;20631;-45
2022/09/16 08:27:34;;;;;;;11.33;4.80;;;;;;;;;;4896289;28;20349;-45
2022/09/16 08:30:00;;;;;;;13.33;4.43;;;;;;;;;;4900230;28;20689;-45
2022/09/16 08:32:26;;;;;;;9.70;4.33;;;;;;;;;;4898757;29;20879;-45
2022/09/16 08:34:52;;;;;;;7.97;3.73;;;;;;;;;;4898322;29;20224;-43
2022/09/16 08:37:19;;;;;;;11.50;4.00;;;;;;;;;;4896425;29;20728;-43
2022/09/16 08:39:47;;;;;;;9.33;3.80;;;;;;;;;;4899229;29;20576;-43
2022/09/16 08:42:16;;;;;;;8.73;3.70;;;;;;;;;;4897179;29;20176;-43
2022/09/16 08:44:54;;;;;;;8.03;3.77;;;;;;;;;;4894198;29;20192;-43
2022/09/16 08:47:20;;;;;;;7.97;4.10;;;;;;;;;;4894947;29;20632;-43
2022/09/16 08:49:49;;;;;;;8.47;3.53;;;;;;;;;;4900171;29;20185;-43
2022/09/16 08:52:22;;;;;;;12.77;3.67;;;;;;;;;;4899394;29;20195;-43
2022/09/16 08:54:50;;;;;;;9.03;3.60;;;;;;;;;;4902592;29;20407;-43
2022/09/16 08:57:24;;;;;;;10.57;3.70;;;;;;;;;;4894650;29;20192;-43
2022/09/16 08:59:55;;;;;;;7.80;3.50;;;;;;;;;;4897415;28;20172;-43
2022/09/16 09:02:26;;;;;;;12.17;3.90;;;;;;;;;;4900024;28;20477;-43
2022/09/16 09:04:53;;;;;;;10.43;3.80;;;;;;;;;;4893757;29;20611;-43
2022/09/16 09:07:37;;;;;;;13.03;3.87;;;;;;;;;;4894892;29;20438;-43
2022/09/16 09:10:09;;;;;;;12.63;4.10;;;;;;;;;;4898463;29;20185;-43
2022/09/16 09:12:35;;;;;;;10.30;3.53;;;;;;;;;;4893415;29;20423;-43
2022/09/16 09:15:16;;;;;;;11.23;3.97;;;;;;;;;;4894791;29;20310;-43
2022/09/16 09:17:55;;;;;;;8.43;3.50;;;;;;;;;;4898266;28;20173;-43
2022/09/16 09:20:21;;;;;;;11.33;4.23;;;;;;;;;;4894656;29;20188;-44
2022/09/16 09:22:47;;;;;;;10.87;4.30;;;;;;;;;;4894053;29;20476;-43
2022/09/16 09:25:26;;;;;;;13.00;3.70;;;;;;;;;;4892773;29;20255;-43
2022/09/16 09:28:04;;;;;;;10.73;3.70;;;;;;;;;;4894024;29;20190;-43
2022/09/16 09:30:31;;;;;;;6.67;3.00;;;;;;;;;;4892132;29;20456;-43
2022/09/16 09:32:57;;;;;;;10.40;3.73;;;;;;;;;;4893133;29;20473;-44
2022/09/16 09:35:29;;;;;;;10.13;3.60;;;;;;;;;;4889387;29;20323;-45
2022/09/16 09:37:59;;;;;;;8.70;3.10;;;;;;;;;;4892155;29;20303;-43
2022/09/16 09:40:44;;;;;;;11.57;3.87;;;;;;;;;;4894454;29;20206;-44
2022/09/16 09:43:14;;;;;;;12.87;3.63;;;;;;;;;;4895371;29;20326;-43
2022/09/16 09:45:44;;;;;;;11.30;3.77;;;;;;;;;;4895331;29;20625;-44
2022/09/16 09:48:10;;;;;;;11.07;3.97;;;;;;;;;;4893887;29;20180;-44
2022/09/16 09:50:42;;;;;;;8.13;3.13;;;;;;;;;;4889243;29;20180;-44
2022/09/16 09:53:11;;;;;;;14.03;3.43;;;;;;;;;;4894153;29;20192;-45
2022/09/16 09:55:39;;;;;;;8.40;3.33;;;;;;;;;;4897840;29;20207;-45
2022/09/16 09:58:29;;;;;;;10.53;3.10;;;;;;;;;;4896057;28;20312;-44
2022/09/16 10:00:55;;;;;;;8.70;3.10;;;;;;;;;;4889198;28;20181;-44
2022/09/16 10:03:21;;;;;;;7.60;3.03;;;;;;;;;;4889602;29;20561;-44
2022/09/16 10:05:47;;;;;;;12.50;3.00;;;;;;;;;;4897592;29;20217;-45
2022/09/16 10:08:18;;;;;;;8.27;3.00;;;;;;;;;;4897141;29;20609;-44
2022/09/16 10:10:51;;;;;;;8.03;3.47;;;;;;;;;;4893769;29;20710;-45
2022/09/16 10:13:18;;;;;;;11.70;3.23;;;;;;;;;;4890244;29;21033;-44
2022/09/16 10:15:44;;;;;;;7.53;2.60;;;;;;;;;;4894018;29;20622;-44
2022/09/16 10:18:31;;;;;;;7.83;2.40;;;;;;;;;;4896033;29;20187;-44
2022/09/16 10:21:06;;;;;;;6.13;2.57;;;;;;;;;;4892588;29;20909;-44
2022/09/16 10:23:33;;;;;;;4.97;2.20;;;;;;;;;;4889764;29;20183;-44
2022/09/16 10:26:06;;;;;;;10.23;2.60;;;;;;;;;;4888955;29;20677;-44
2022/09/16 10:28:33;;;;;;;7.70;2.37;;;;;;;;;;4894489;29;20709;-44
2022/09/16 10:30:59;;;;;;;9.43;2.93;;;;;;;;;;4894767;29;20184;-44
2022/09/16 10:33:34;;;;;;;7.30;2.43;;;;;;;;;;4892222;29;20195;-44
2022/09/16 10:36:02;;;;;;;9.67;3.20;;;;;;;;;;4894777;29;20204;-44
2022/09/16 10:38:55;;;;;;;6.93;2.70;;;;;;;;;;4893237;29;20403;-44
2022/09/16 10:41:23;;;;;;;8.90;2.80;;;;;;;;;;4899330;28;20192;-44
2022/09/16 10:43:50;;;;;;;5.13;2.63;;;;;;;;;;4897683;28;20421;-44
2022/09/16 10:46:17;;;;;;;6.17;2.90;;;;;;;;;;4894869;29;20191;-44
2022/09/16 10:48:44;;;;;;;8.43;2.57;;;;;;;;;;4893100;29;20218;-44
2022/09/16 10:51:24;;;;;;;6.03;2.53;;;;;;;;;;4895324;29;20207;-44
2022/09/16 10:53:52;;;;;;;11.13;3.00;;;;;;;;;;4898301;29;20183;-44
2022/09/16 10:56:20;;;;;;;7.93;2.70;;;;;;;;;;4896226;29;20590;-44
2022/09/16 10:58:46;;;;;;;8.77;2.73;;;;;;;;;;4899021;29;20531;-44
2022/09/16 11:01:12;;;;;;;9.53;2.80;;;;;;;;;;4894853;29;20183;-44
2022/09/16 11:03:41;;;;;;;8.30;2.40;;;;;;;;;;4893473;29;20211;-44
2022/09/16 11:06:26;;;;;;;5.90;2.70;;;;;;;;;;4897414;29;21048;-44
2022/09/16 11:08:55;;;;;;;7.13;2.60;;;;;;;;;;4898828;29;20552;-44
2022/09/16 11:11:36;;;;;;;9.63;2.70;;;;;;;;;;4891879;29;20902;-44
2022/09/16 11:14:05;;;;;;;10.23;2.80;;;;;;;;;;4896783;29;20541;-44
2022/09/16 11:16:46;;;;;;;7.03;2.77;;;;;;;;;;4896331;29;20183;-44
2022/09/16 11:19:24;;;;;;;11.13;3.13;;;;;;;;;;4894510;29;21068;-44
2022/09/16 11:22:08;;;;;;;6.90;2.40;;;;;;;;;;4898240;29;20431;-44
2022/09/16 11:24:53;;;;;;;10.00;2.87;;;;;;;;;;4899543;29;20188;-44
2022/09/16 11:27:43;;;;;;;6.43;2.50;;;;;;;;;;4894170;29;20183;-44
2022/09/16 11:30:14;;;;;;;8.63;2.63;;;;;;;;;;4894155;28;20216;-44
2022/09/16 11:32:40;;;;;;;5.83;2.27;;;;;;;;;;4895003;29;20263;-44
2022/09/16 11:35:06;;;;;;;9.97;2.90;;;;;;;;;;4896999;29;20208;-44
2022/09/16 11:37:37;;;;;;;7.37;2.30;;;;;;;;;;4896903;29;20180;-44
2022/09/16 11:40:24;;;;;;;6.90;2.40;;;;;;;;;;4892605;29;20382;-44
2022/09/16 11:43:16;;;;;;;5.50;2.63;;;;;;;;;;4917602;28;21362;-44
2022/09/16 11:45:47;;;;;;;7.80;2.67;;;;;;;;;;4905459;28;20693;-44
2022/09/16 11:48:19;;;;;;;5.77;2.60;;;;;;;;;;4898144;29;20172;-44
2022/09/16 11:50:50;;;;;;;10.10;2.43;;;;;;;;;;4898869;29;20539;-44
2022/09/16 11:53:19;;;;;;;6.73;2.63;;;;;;;;;;4898085;29;20180;-44
2022/09/16 11:55:58;;;;;;;7.80;2.13;;;;;;;;;;4903026;29;20205;-44
2022/09/16 11:58:34;;;;;;;4.07;2.00;;;;;;;;;;4900275;29;20187;-44
2022/09/16 12:01:09;;;;;;;5.87;2.80;;;;;;;;;;4898576;29;20621;-44
2022/09/16 12:03:55;;;;;;;8.70;2.40;;;;;;;;;;4896151;29;20779;-44
2022/09/16 12:06:23;;;;;;;5.43;2.40;;;;;;;;;;4896724;29;20180;-44
2022/09/16 12:08:54;;;;;;;8.37;3.30;;;;;;;;;;4896459;29;20704;-44
2022/09/16 12:11:39;;;;;;;10.23;2.57;;;;;;;;;;4897655;29;20187;-44
2022/09/16 12:14:24;;;;;;;5.70;2.43;;;;;;;;;;4913420;28;20338;-44
2022/09/16 12:16:56;;;;;;;8.50;2.83;;;;;;;;;;4911165;28;20699;-44
2022/09/16 12:19:22;;;;;;;4.97;2.47;;;;;;;;;;4898577;29;20176;-44
2022/09/16 12:21:54;;;;;;;4.80;2.50;;;;;;;;;;4895254;29;20176;-44
2022/09/16 12:24:40;;;;;;;6.57;2.13;;;;;;;;;;4898710;29;20909;-44
2022/09/16 12:27:16;;;;;;;7.83;2.63;;;;;;;;;;4898935;29;20223;-44
2022/09/16 12:30:01;;;;;;;5.70;2.67;;;;;;;;;;4894254;29;20586;-44
2022/09/16 12:32:35;;;;;;;7.17;2.73;;;;;;;;;;4897081;29;20396;-44
2022/09/16 12:35:04;;;;;;;9.50;2.40;;;;;;;;;;4898495;29;20204;-45
2022/09/16 12:37:45;;;;;;;7.23;2.80;;;;;;;;;;4899987;29;20168;-45
2022/09/16 12:40:16;;;;;;;8.53;2.40;;;;;;;;;;4898311;29;20636;-44
2022/09/16 12:42:42;;;;;;;5.53;2.20;;;;;;;;;;4894674;29;20811;-44
2022/09/16 12:45:27;;;;;;;6.63;2.50;;;;;;;;;;4896475;29;20299;-44
2022/09/16 12:48:12;;;;;;;8.43;2.60;;;;;;;;;;4896254;29;20275;-44
2022/09/16 12:50:44;;;;;;;5.83;2.43;;;;;;;;;;4897138;29;20925;-42
2022/09/16 12:53:26;;;;;;;8.63;2.27;;;;;;;;;;4894746;29;20180;-42
2022/09/16 12:56:09;;;;;;;7.07;2.33;;;;;;;;;;4896464;29;20209;-43
2022/09/16 12:58:41;;;;;;;6.90;2.70;;;;;;;;;;4897991;29;20531;-43
2022/09/16 13:01:10;;;;;;;9.93;2.27;;;;;;;;;;4899524;29;20188;-43
2022/09/16 13:03:43;;;;;;;8.20;2.23;;;;;;;;;;4899491;29;21976;-43
2022/09/16 13:06:35;;;;;;;8.27;2.33;;;;;;;;;;4897746;29;20194;-43
2022/09/16 13:09:20;;;;;;;7.33;2.70;;;;;;;;;;4894680;29;20196;-43
2022/09/16 13:12:04;;;;;;;7.87;2.70;;;;;;;;;;4895323;29;20184;-43
2022/09/16 13:14:44;;;;;;;8.17;2.43;;;;;;;;;;4898020;29;20262;-43
2022/09/16 13:17:11;;;;;;;7.13;2.47;;;;;;;;;;4896211;29;20183;-43
2022/09/16 13:19:46;;;;;;;9.10;2.60;;;;;;;;;;4895628;29;20298;-43
2022/09/16 13:22:23;;;;;;;6.03;2.10;;;;;;;;;;4897260;29;20866;-43
2022/09/16 13:24:55;;;;;;;7.80;2.37;;;;;;;;;;4899586;29;20203;-43
2022/09/16 13:27:29;;;;;;;10.00;2.90;;;;;;;;;;4897623;29;20589;-43
2022/09/16 13:30:25;;;;;;;4.87;1.83;;;;;;;;;;4902835;28;20310;-43
2022/09/16 13:32:51;;;;;;;2.63;1.60;;;;;;;;;;4898128;28;20274;-44
2022/09/16 13:35:17;;;;;;;4.67;2.00;;;;;;;;;;4900313;29;20662;-44
2022/09/16 13:37:47;;;;;;;6.43;2.53;;;;;;;;;;4898126;29;20333;-44
2022/09/16 13:40:26;;;;;;;7.90;2.30;;;;;;;;;;4897799;29;20243;-44
2022/09/16 13:43:03;;;;;;;5.73;2.23;;;;;;;;;;4894681;29;20188;-45
2022/09/16 13:45:31;;;;;;;8.40;2.53;;;;;;;;;;4892375;29;20168;-44
2022/09/16 13:47:59;;;;;;;6.57;2.40;;;;;;;;;;4899157;29;20191;-44
2022/09/16 13:50:26;;;;;;;5.00;1.87;;;;;;;;;;4898771;29;20693;-44
2022/09/16 13:52:52;;;;;;;6.23;2.33;;;;;;;;;;4895892;28;20934;-42
2022/09/16 13:55:26;;;;;;;3.57;1.30;;;;;;;;;;4896492;29;20660;-43
2022/09/16 13:58:12;;;;;;;3.13;1.00;;;;;;;;;;4897594;29;20704;-43
2022/09/16 14:00:45;;;;;;;2.50;1.30;;;;;;;;;;4897270;29;20354;-43
2022/09/16 14:03:17;;;;;;;4.77;1.73;;;;;;;;;;4895232;29;20192;-43
2022/09/16 14:06:01;;;;;;;5.40;1.33;;;;;;;;;;4895080;29;20189;-43
2022/09/16 14:08:27;;;;;;;7.20;2.13;;;;;;;;;;4896372;29;20714;-43
2022/09/16 14:11:03;;;;;;;8.03;2.30;;;;;;;;;;4902228;29;20185;-43
2022/09/16 14:13:41;;;;;;;6.97;2.43;;;;;;;;;;4897717;29;20616;-43
2022/09/16 14:16:14;;;;;;;6.87;2.03;;;;;;;;;;4895210;29;20471;-43
2022/09/16 14:18:41;;;;;;;6.10;1.30;;;;;;;;;;4896844;29;20192;-43
2022/09/16 14:21:19;;;;;;;3.33;1.30;;;;;;;;;;4895902;29;20283;-44
2022/09/16 14:23:45;;;;;;;2.10;1.30;;;;;;;;;;4901182;28;20702;-44
2022/09/16 14:26:12;;;;;;;3.27;1.30;;;;;;;;;;4894594;29;20800;-44
2022/09/16 14:28:39;;;;;;;4.10;1.67;;;;;;;;;;4897275;29;20345;-44
2022/09/16 14:31:16;;;;;;;20.63;2.13;;;;;;;;;;4898807;29;20277;-44
2022/09/16 14:33:57;;;;;;;5.33;1.70;;;;;;;;;;4897854;29;20177;-44
2022/09/16 14:36:28;;;;;;;4.20;1.63;;;;;;;;;;4894645;29;20461;-44
2022/09/16 14:38:58;;;;;;;3.97;1.40;;;;;;;;;;4899377;28;20636;-44
2022/09/16 14:41:32;;;;;;;5.90;1.60;;;;;;;;;;4900426;29;20216;-44
2022/09/16 14:44:09;;;;;;;3.47;1.60;;;;;;;;;;4900856;29;20583;-44
2022/09/16 14:46:41;;;;;;;3.70;1.70;;;;;;;;;;4897333;29;20304;-44
2022/09/16 14:49:09;;;;;;;5.63;1.60;;;;;;;;;;4897294;29;20679;-44
2022/09/16 14:51:36;;;;;;;2.53;1.40;;;;;;;;;;4898380;29;20656;-44
2022/09/16 14:54:02;;;;;;;2.67;1.50;;;;;;;;;;4902544;29;20472;-44
2022/09/16 14:56:28;;;;;;;3.77;1.30;;;;;;;;;;4901584;29;20542;-44
2022/09/16 14:58:54;;;;;;;4.77;1.30;;;;;;;;;;4898304;29;20189;-44